Millenium Air

Millenium Air Since 1998



 METAR AND TAF INFORMATION

Deprecated: The each() function is deprecated. This message will be suppressed on further calls in /var/www/virtual/milleniumair.it/htdocs/vam/helpers/get_metar.php on line 20
METAR FOR LIEA
ADDS - METARS form results

(0238 UTC 23 September 2021)
Data provider http://aviationweather.gov/metar/data/
 
METAR text: LIEA 230220Z AUTO 01003KT 9999 NCD 18/16 Q1018
Conditions at: LIEA (ALGHERO , IT) observed 0220 UTC 23 September 2021
Temperature: 18.0°C (64°F)
Dewpoint: 16.0°C (61°F) [RH = 88%]
Pressure (altimeter): 30.06 inches Hg (1018.0 mb)
Winds: from the N (10 degrees) at 3 MPH (3 knots; 1.5 m/s)
Visibility: 6 or more miles (10+ km)
Ceiling: at least 12,000 feet AGL
Clouds: sky clear below 12,000 feet AGL
Weather: no significant weather observed at this time

METAR text: LIEA 230150Z AUTO 03005KT 9999 NCD 18/16 Q1018
Conditions at: LIEA (ALGHERO , IT) observed 0150 UTC 23 September 2021
Temperature: 18.0°C (64°F)
Dewpoint: 16.0°C (61°F) [RH = 88%]
Pressure (altimeter): 30.06 inches Hg (1018.0 mb)
Winds: from the NNE (30 degrees) at 6 MPH (5 knots; 2.6 m/s)
Visibility: 6 or more miles (10+ km)
Ceiling: at least 12,000 feet AGL
Clouds: sky clear below 12,000 feet AGL
Weather: no significant weather observed at this time

Forecast for: LIEA (ALGHERO , IT)
Text: TAF LIEA 222300Z 2300/2324 02010KT 9999 FEW040
Forecast period: 0000 UTC 23 September 2021 to 0000 UTC 24 September 2021
Forecast type: FROM: standard forecast or significant change
Winds: from the NNE (20 degrees) at 12 MPH (10 knots; 5.1 m/s)
Visibility: 6 or more miles (10+ km)
Ceiling: at least 12,000 feet AGL
Clouds: few clouds at 4000 feet AGL
Weather: no significant weather forecast for this period

 AIRPORT MAP

 RUNWAY INFORMATION
Runway 02 Runway length 9843 ft Runway width 148 ft
Runway elevation 69 ft Runway displaced threshold 0 ft Runway heading 25
Runway 20 Runway length 9843 ft Runway width 148 ft
Runway elevation 87 ft Runway displaced threshold 0 ft Runway heading 205

 AIRPORT FREQUENCIES
Type APP Name APP Frequency 128.55 MHZ
Type ATIS Name ATIS Frequency 125.025 MHZ
Type TWR Name TWR Frequency 118.85 MHZ

 AIRPORT NEAR NAVIGATION AIDS
Type TACAN Name Alghero Frequency 109300 KHZ
Type VORTAC Name Alghero Frequency 113800 KHZ
Type NDB Name Alghero Frequency 382 KHZ